sensor_id;sensor_type;location;lat;lon;timestamp;temperature;humidity
71096;DHT22;58753;49.440;11.126;2024-03-02T00:00:36;5.66;91.21
71096;DHT22;58753;49.440;11.126;2024-03-02T00:03:02;5.66;91.28
71096;DHT22;58753;49.440;11.126;2024-03-02T00:05:27;5.67;91.26
71096;DHT22;58753;49.440;11.126;2024-03-02T00:07:55;5.66;91.31
71096;DHT22;58753;49.440;11.126;2024-03-02T00:10:41;5.61;91.40
71096;DHT22;58753;49.440;11.126;2024-03-02T00:13:07;5.63;91.43
71096;DHT22;58753;49.440;11.126;2024-03-02T00:18:15;5.66;91.49
71096;DHT22;58753;49.440;11.126;2024-03-02T00:20:41;5.64;91.55
71096;DHT22;58753;49.440;11.126;2024-03-02T00:23:07;5.64;91.55
71096;DHT22;58753;49.440;11.126;2024-03-02T00:28:18;5.63;91.62
71096;DHT22;58753;49.440;11.126;2024-03-02T00:33:27;5.69;91.77
71096;DHT22;58753;49.440;11.126;2024-03-02T00:35:53;5.67;91.81
71096;DHT22;58753;49.440;11.126;2024-03-02T00:38:19;5.71;91.81
71096;DHT22;58753;49.440;11.126;2024-03-02T00:40:45;5.71;91.85
71096;DHT22;58753;49.440;11.126;2024-03-02T00:43:47;5.70;91.86
71096;DHT22;58753;49.440;11.126;2024-03-02T00:46:18;5.74;91.94
71096;DHT22;58753;49.440;11.126;2024-03-02T00:48:55;5.75;91.93
71096;DHT22;58753;49.440;11.126;2024-03-02T00:51:25;5.78;92.03
71096;DHT22;58753;49.440;11.126;2024-03-02T00:53:57;5.81;91.99
71096;DHT22;58753;49.440;11.126;2024-03-02T00:56:24;5.81;92.05
71096;DHT22;58753;49.440;11.126;2024-03-02T00:58:50;5.81;92.03
71096;DHT22;58753;49.440;11.126;2024-03-02T01:01:16;5.81;92.05
71096;DHT22;58753;49.440;11.126;2024-03-02T01:03:41;5.83;92.10
71096;DHT22;58753;49.440;11.126;2024-03-02T01:06:07;5.81;92.12
71096;DHT22;58753;49.440;11.126;2024-03-02T01:08:36;5.78;92.15
71096;DHT22;58753;49.440;11.126;2024-03-02T01:11:02;5.81;92.14
71096;DHT22;58753;49.440;11.126;2024-03-02T01:13:28;5.78;92.17
71096;DHT22;58753;49.440;11.126;2024-03-02T01:15:53;5.78;92.17
71096;DHT22;58753;49.440;11.126;2024-03-02T01:18:18;5.74;92.26
71096;DHT22;58753;49.440;11.126;2024-03-02T01:20:44;5.73;92.27
71096;DHT22;58753;49.440;11.126;2024-03-02T01:23:10;5.70;92.28
71096;DHT22;58753;49.440;11.126;2024-03-02T01:25:35;5.70;92.34
71096;DHT22;58753;49.440;11.126;2024-03-02T01:28:01;5.64;92.34
71096;DHT22;58753;49.440;11.126;2024-03-02T01:30:26;5.63;92.45
71096;DHT22;58753;49.440;11.126;2024-03-02T01:32:52;5.61;92.46
71096;DHT22;58753;49.440;11.126;2024-03-02T01:35:17;5.56;92.47
71096;DHT22;58753;49.440;11.126;2024-03-02T01:37:42;5.53;92.55
71096;DHT22;58753;49.440;11.126;2024-03-02T01:40:08;5.54;92.64
71096;DHT22;58753;49.440;11.126;2024-03-02T01:42:40;5.51;92.61
71096;DHT22;58753;49.440;11.126;2024-03-02T01:45:06;5.49;92.64
71096;DHT22;58753;49.440;11.126;2024-03-02T01:47:32;5.49;92.72
71096;DHT22;58753;49.440;11.126;2024-03-02T01:49:58;5.43;92.78
71096;DHT22;58753;49.440;11.126;2024-03-02T01:52:24;5.42;92.76
71096;DHT22;58753;49.440;11.126;2024-03-02T01:54:49;5.42;92.84
71096;DHT22;58753;49.440;11.126;2024-03-02T01:57:15;5.42;92.83
71096;DHT22;58753;49.440;11.126;2024-03-02T01:59:41;5.40;92.86
71096;DHT22;58753;49.440;11.126;2024-03-02T02:02:06;5.39;92.87
71096;DHT22;58753;49.440;11.126;2024-03-02T02:04:32;5.35;92.91
71096;DHT22;58753;49.440;11.126;2024-03-02T02:06:58;5.32;92.92
71096;DHT22;58753;49.440;11.126;2024-03-02T02:09:25;5.32;93.01
71096;DHT22;58753;49.440;11.126;2024-03-02T02:11:51;5.32;93.06
71096;DHT22;58753;49.440;11.126;2024-03-02T02:14:17;5.29;93.11
71096;DHT22;58753;49.440;11.126;2024-03-02T02:16:42;5.28;93.11
71096;DHT22;58753;49.440;11.126;2024-03-02T02:19:08;5.25;93.11
71096;DHT22;58753;49.440;11.126;2024-03-02T02:21:33;5.22;93.10
71096;DHT22;58753;49.440;11.126;2024-03-02T02:23:59;5.20;93.18
71096;DHT22;58753;49.440;11.126;2024-03-02T02:26:24;5.18;93.29
71096;DHT22;58753;49.440;11.126;2024-03-02T02:28:50;5.20;93.27
71096;DHT22;58753;49.440;11.126;2024-03-02T02:31:15;5.20;93.37
71096;DHT22;58753;49.440;11.126;2024-03-02T02:33:42;5.25;93.31
71096;DHT22;58753;49.440;11.126;2024-03-02T02:36:07;5.22;93.36
71096;DHT22;58753;49.440;11.126;2024-03-02T02:38:36;5.25;93.40
71096;DHT22;58753;49.440;11.126;2024-03-02T02:41:03;5.25;93.38
71096;DHT22;58753;49.440;11.126;2024-03-02T02:43:28;5.26;93.33
71096;DHT22;58753;49.440;11.126;2024-03-02T02:45:54;5.25;93.38
71096;DHT22;58753;49.440;11.126;2024-03-02T02:48:19;5.26;93.39
71096;DHT22;58753;49.440;11.126;2024-03-02T02:50:45;5.26;93.43
71096;DHT22;58753;49.440;11.126;2024-03-02T02:53:10;5.26;93.43
71096;DHT22;58753;49.440;11.126;2024-03-02T02:55:36;5.29;93.45
71096;DHT22;58753;49.440;11.126;2024-03-02T02:58:08;5.26;93.50
71096;DHT22;58753;49.440;11.126;2024-03-02T03:00:33;5.30;93.53
71096;DHT22;58753;49.440;11.126;2024-03-02T03:02:59;5.29;93.51
71096;DHT22;58753;49.440;11.126;2024-03-02T03:05:24;5.32;93.58
71096;DHT22;58753;49.440;11.126;2024-03-02T03:07:50;5.33;93.60
71096;DHT22;58753;49.440;11.126;2024-03-02T03:10:16;5.35;93.58
71096;DHT22;58753;49.440;11.126;2024-03-02T03:12:42;5.36;93.63
71096;DHT22;58753;49.440;11.126;2024-03-02T03:15:09;5.36;93.59
71096;DHT22;58753;49.440;11.126;2024-03-02T03:17:35;5.40;93.65
71096;DHT22;58753;49.440;11.126;2024-03-02T03:20:01;5.42;93.64
71096;DHT22;58753;49.440;11.126;2024-03-02T03:22:26;5.43;93.62
71096;DHT22;58753;49.440;11.126;2024-03-02T03:24:52;5.43;93.64
71096;DHT22;58753;49.440;11.126;2024-03-02T03:27:18;5.47;93.68
71096;DHT22;58753;49.440;11.126;2024-03-02T03:29:45;5.46;93.70
71096;DHT22;58753;49.440;11.126;2024-03-02T03:32:10;5.49;93.70
71096;DHT22;58753;49.440;11.126;2024-03-02T03:34:36;5.47;93.71
71096;DHT22;58753;49.440;11.126;2024-03-02T03:37:02;5.51;93.68
71096;DHT22;58753;49.440;11.126;2024-03-02T03:39:27;5.53;93.71
71096;DHT22;58753;49.440;11.126;2024-03-02T03:41:53;5.53;93.71
71096;DHT22;58753;49.440;11.126;2024-03-02T03:44:19;5.54;93.76
71096;DHT22;58753;49.440;11.126;2024-03-02T03:46:44;5.59;93.76
71096;DHT22;58753;49.440;11.126;2024-03-02T03:49:10;5.60;93.84
71096;DHT22;58753;49.440;11.126;2024-03-02T03:51:35;5.64;93.79
71096;DHT22;58753;49.440;11.126;2024-03-02T03:54:01;5.64;93.78
71096;DHT22;58753;49.440;11.126;2024-03-02T03:56:26;5.66;93.80
71096;DHT22;58753;49.440;11.126;2024-03-02T03:58:52;5.69;93.83
71096;DHT22;58753;49.440;11.126;2024-03-02T04:01:17;5.67;93.71
71096;DHT22;58753;49.440;11.126;2024-03-02T04:03:43;5.67;93.78
71096;DHT22;58753;49.440;11.126;2024-03-02T04:06:08;5.69;93.74
71096;DHT22;58753;49.440;11.126;2024-03-02T04:08:34;5.66;93.81
71096;DHT22;58753;49.440;11.126;2024-03-02T04:10:59;5.70;93.83
71096;DHT22;58753;49.440;11.126;2024-03-02T04:13:25;5.69;93.82
71096;DHT22;58753;49.440;11.126;2024-03-02T04:15:50;5.67;93.78
71096;DHT22;58753;49.440;11.126;2024-03-02T04:18:16;5.64;93.80
71096;DHT22;58753;49.440;11.126;2024-03-02T04:20:41;5.59;93.90
71096;DHT22;58753;49.440;11.126;2024-03-02T04:23:07;5.59;93.87
71096;DHT22;58753;49.440;11.126;2024-03-02T04:25:33;5.53;93.85
71096;DHT22;58753;49.440;11.126;2024-03-02T04:27:58;5.49;93.90
71096;DHT22;58753;49.440;11.126;2024-03-02T04:30:23;5.44;93.91
71096;DHT22;58753;49.440;11.126;2024-03-02T04:32:50;5.40;93.93
71096;DHT22;58753;49.440;11.126;2024-03-02T04:35:16;5.36;93.93
71096;DHT22;58753;49.440;11.126;2024-03-02T04:37:41;5.32;93.97
71096;DHT22;58753;49.440;11.126;2024-03-02T04:40:07;5.25;93.99
71096;DHT22;58753;49.440;11.126;2024-03-02T04:42:35;5.20;93.95
71096;DHT22;58753;49.440;11.126;2024-03-02T04:45:01;5.13;94.03
71096;DHT22;58753;49.440;11.126;2024-03-02T04:47:26;5.11;94.03
71096;DHT22;58753;49.440;11.126;2024-03-02T04:49:52;5.02;94.11
71096;DHT22;58753;49.440;11.126;2024-03-02T04:52:17;4.98;94.08
71096;DHT22;58753;49.440;11.126;2024-03-02T04:54:43;4.92;94.15
71096;DHT22;58753;49.440;11.126;2024-03-02T04:57:27;4.88;94.18
71096;DHT22;58753;49.440;11.126;2024-03-02T04:59:52;4.85;94.28
71096;DHT22;58753;49.440;11.126;2024-03-02T05:02:18;4.79;94.27
71096;DHT22;58753;49.440;11.126;2024-03-02T05:04:43;4.78;94.28
71096;DHT22;58753;49.440;11.126;2024-03-02T05:07:08;4.74;94.35
71096;DHT22;58753;49.440;11.126;2024-03-02T05:09:34;4.71;94.37
71096;DHT22;58753;49.440;11.126;2024-03-02T05:11:59;4.65;94.43
71096;DHT22;58753;49.440;11.126;2024-03-02T05:14:55;4.62;94.38
71096;DHT22;58753;49.440;11.126;2024-03-02T05:17:21;4.57;94.47
71096;DHT22;58753;49.440;11.126;2024-03-02T05:19:46;4.53;94.53
71096;DHT22;58753;49.440;11.126;2024-03-02T05:22:11;4.51;94.52
71096;DHT22;58753;49.440;11.126;2024-03-02T05:24:37;4.47;94.53
71096;DHT22;58753;49.440;11.126;2024-03-02T05:27:02;4.44;94.61
71096;DHT22;58753;49.440;11.126;2024-03-02T05:29:28;4.41;94.67
71096;DHT22;58753;49.440;11.126;2024-03-02T05:31:53;4.38;94.67
71096;DHT22;58753;49.440;11.126;2024-03-02T05:34:18;4.36;94.69
71096;DHT22;58753;49.440;11.126;2024-03-02T05:36:44;4.29;94.65
71096;DHT22;58753;49.440;11.126;2024-03-02T05:39:09;4.29;94.73
71096;DHT22;58753;49.440;11.126;2024-03-02T05:41:36;4.23;94.72
71096;DHT22;58753;49.440;11.126;2024-03-02T05:44:01;4.23;94.76
71096;DHT22;58753;49.440;11.126;2024-03-02T05:46:27;4.21;94.81
71096;DHT22;58753;49.440;11.126;2024-03-02T05:48:52;4.18;94.90
71096;DHT22;58753;49.440;11.126;2024-03-02T05:51:18;4.18;94.89
71096;DHT22;58753;49.440;11.126;2024-03-02T05:53:43;4.20;94.87
71096;DHT22;58753;49.440;11.126;2024-03-02T05:56:09;4.20;94.93
71096;DHT22;58753;49.440;11.126;2024-03-02T05:58:34;4.18;94.97
71096;DHT22;58753;49.440;11.126;2024-03-02T06:01:17;4.18;95.05
71096;DHT22;58753;49.440;11.126;2024-03-02T06:03:43;4.21;95.00
71096;DHT22;58753;49.440;11.126;2024-03-02T06:06:09;4.25;95.14
71096;DHT22;58753;49.440;11.126;2024-03-02T06:08:34;4.33;95.17
71096;DHT22;58753;49.440;11.126;2024-03-02T06:11:00;4.37;95.16
71096;DHT22;58753;49.440;11.126;2024-03-02T06:13:26;4.43;95.16
71096;DHT22;58753;49.440;11.126;2024-03-02T06:15:52;4.47;95.13
71096;DHT22;58753;49.440;11.126;2024-03-02T06:18:17;4.48;95.13
71096;DHT22;58753;49.440;11.126;2024-03-02T06:20:42;4.53;95.15
71096;DHT22;58753;49.440;11.126;2024-03-02T06:23:08;4.50;95.13
71096;DHT22;58753;49.440;11.126;2024-03-02T06:25:33;4.53;95.11
71096;DHT22;58753;49.440;11.126;2024-03-02T06:27:59;4.54;95.09
71096;DHT22;58753;49.440;11.126;2024-03-02T06:30:24;4.55;95.12
71096;DHT22;58753;49.440;11.126;2024-03-02T06:32:50;4.53;95.11
71096;DHT22;58753;49.440;11.126;2024-03-02T06:35:15;4.55;95.07
71096;DHT22;58753;49.440;11.126;2024-03-02T06:37:40;4.53;95.07
71096;DHT22;58753;49.440;11.126;2024-03-02T06:40:07;4.50;95.08
71096;DHT22;58753;49.440;11.126;2024-03-02T06:42:33;4.54;95.32
71096;DHT22;58753;49.440;11.126;2024-03-02T06:44:59;4.57;95.31
71096;DHT22;58753;49.440;11.126;2024-03-02T06:47:24;4.58;95.17
71096;DHT22;58753;49.440;11.126;2024-03-02T06:49:50;4.55;95.18
71096;DHT22;58753;49.440;11.126;2024-03-02T06:52:16;4.58;95.16
71096;DHT22;58753;49.440;11.126;2024-03-02T06:54:41;4.60;95.18
71096;DHT22;58753;49.440;11.126;2024-03-02T06:57:07;4.64;95.18
71096;DHT22;58753;49.440;11.126;2024-03-02T06:59:32;4.65;95.23
71096;DHT22;58753;49.440;11.126;2024-03-02T07:01:58;4.69;95.25
71096;DHT22;58753;49.440;11.126;2024-03-02T07:04:24;4.74;95.30
71096;DHT22;58753;49.440;11.126;2024-03-02T07:06:49;4.81;95.30
71096;DHT22;58753;49.440;11.126;2024-03-02T07:09:16;4.88;95.27
71096;DHT22;58753;49.440;11.126;2024-03-02T07:11:41;4.95;95.28
71096;DHT22;58753;49.440;11.126;2024-03-02T07:14:07;4.98;95.27
71096;DHT22;58753;49.440;11.126;2024-03-02T07:16:32;5.09;95.32
71096;DHT22;58753;49.440;11.126;2024-03-02T07:18:59;5.22;95.35
71096;DHT22;58753;49.440;11.126;2024-03-02T07:21:27;5.36;95.43
71096;DHT22;58753;49.440;11.126;2024-03-02T07:23:53;5.53;95.53
71096;DHT22;58753;49.440;11.126;2024-03-02T07:26:18;5.73;95.53
71096;DHT22;58753;49.440;11.126;2024-03-02T07:28:46;5.93;95.43
71096;DHT22;58753;49.440;11.126;2024-03-02T07:31:13;6.10;95.36
71096;DHT22;58753;49.440;11.126;2024-03-02T07:33:38;6.29;95.26
71096;DHT22;58753;49.440;11.126;2024-03-02T07:36:04;6.46;95.09
71096;DHT22;58753;49.440;11.126;2024-03-02T07:38:30;6.59;94.93
71096;DHT22;58753;49.440;11.126;2024-03-02T07:40:56;6.71;94.81
71096;DHT22;58753;49.440;11.126;2024-03-02T07:43:21;6.79;94.67
71096;DHT22;58753;49.440;11.126;2024-03-02T07:45:48;6.89;94.57
71096;DHT22;58753;49.440;11.126;2024-03-02T07:48:14;6.95;94.43
71096;DHT22;58753;49.440;11.126;2024-03-02T07:50:39;7.03;94.30
71096;DHT22;58753;49.440;11.126;2024-03-02T07:53:05;7.08;94.11
71096;DHT22;58753;49.440;11.126;2024-03-02T07:55:32;7.16;94.05
71096;DHT22;58753;49.440;11.126;2024-03-02T07:57:58;7.20;93.78
71096;DHT22;58753;49.440;11.126;2024-03-02T08:00:24;7.24;93.61
71096;DHT22;58753;49.440;11.126;2024-03-02T08:02:51;7.26;93.56
71096;DHT22;58753;49.440;11.126;2024-03-02T08:05:17;7.28;93.36
71096;DHT22;58753;49.440;11.126;2024-03-02T08:07:45;7.26;93.09
71096;DHT22;58753;49.440;11.126;2024-03-02T08:10:11;7.28;92.97
71096;DHT22;58753;49.440;11.126;2024-03-02T08:12:36;7.28;92.71
71096;DHT22;58753;49.440;11.126;2024-03-02T08:15:01;7.31;92.69
71096;DHT22;58753;49.440;11.126;2024-03-02T08:17:27;7.34;92.63
71096;DHT22;58753;49.440;11.126;2024-03-02T08:19:52;7.38;92.47
71096;DHT22;58753;49.440;11.126;2024-03-02T08:22:19;7.40;92.28
71096;DHT22;58753;49.440;11.126;2024-03-02T08:24:44;7.44;92.13
71096;DHT22;58753;49.440;11.126;2024-03-02T08:27:10;7.50;92.12
71096;DHT22;58753;49.440;11.126;2024-03-02T08:29:35;7.50;92.11
71096;DHT22;58753;49.440;11.126;2024-03-02T08:32:01;7.54;91.92
71096;DHT22;58753;49.440;11.126;2024-03-02T08:34:26;7.57;91.69
71096;DHT22;58753;49.440;11.126;2024-03-02T08:36:52;7.60;91.44
71096;DHT22;58753;49.440;11.126;2024-03-02T08:39:17;7.64;91.40
71096;DHT22;58753;49.440;11.126;2024-03-02T08:41:45;7.70;91.39
71096;DHT22;58753;49.440;11.126;2024-03-02T08:44:11;7.78;91.17
71096;DHT22;58753;49.440;11.126;2024-03-02T08:46:37;7.86;91.01
71096;DHT22;58753;49.440;11.126;2024-03-02T08:49:04;7.96;90.83
71096;DHT22;58753;49.440;11.126;2024-03-02T08:51:29;8.07;90.79
71096;DHT22;58753;49.440;11.126;2024-03-02T08:53:55;8.21;90.59
71096;DHT22;58753;49.440;11.126;2024-03-02T08:56:20;8.36;90.46
71096;DHT22;58753;49.440;11.126;2024-03-02T08:58:46;8.53;90.20
71096;DHT22;58753;49.440;11.126;2024-03-02T09:01:12;8.66;90.10
71096;DHT22;58753;49.440;11.126;2024-03-02T09:03:37;8.74;89.44
71096;DHT22;58753;49.440;11.126;2024-03-02T09:06:03;8.84;89.05
71096;DHT22;58753;49.440;11.126;2024-03-02T09:08:29;8.92;88.79
71096;DHT22;58753;49.440;11.126;2024-03-02T09:10:55;9.03;88.51
71096;DHT22;58753;49.440;11.126;2024-03-02T09:13:21;9.08;88.03
71096;DHT22;58753;49.440;11.126;2024-03-02T09:15:47;9.21;87.97
71096;DHT22;58753;49.440;11.126;2024-03-02T09:18:13;9.27;87.60
71096;DHT22;58753;49.440;11.126;2024-03-02T09:20:38;9.39;87.49
71096;DHT22;58753;49.440;11.126;2024-03-02T09:23:04;9.49;87.19
71096;DHT22;58753;49.440;11.126;2024-03-02T09:25:29;9.62;86.80
71096;DHT22;58753;49.440;11.126;2024-03-02T09:27:54;9.72;86.70
71096;DHT22;58753;49.440;11.126;2024-03-02T09:30:20;9.82;86.45
71096;DHT22;58753;49.440;11.126;2024-03-02T09:32:45;9.92;85.81
71096;DHT22;58753;49.440;11.126;2024-03-02T09:35:11;10.02;85.53
71096;DHT22;58753;49.440;11.126;2024-03-02T09:37:37;10.06;84.96
71096;DHT22;58753;49.440;11.126;2024-03-02T09:40:03;10.16;84.55
71096;DHT22;58753;49.440;11.126;2024-03-02T09:42:29;10.29;84.28
71096;DHT22;58753;49.440;11.126;2024-03-02T09:44:54;10.34;83.83
71096;DHT22;58753;49.440;11.126;2024-03-02T09:47:20;10.47;83.45
71096;DHT22;58753;49.440;11.126;2024-03-02T09:49:46;10.50;82.77
71096;DHT22;58753;49.440;11.126;2024-03-02T09:52:12;10.64;82.69
71096;DHT22;58753;49.440;11.126;2024-03-02T09:54:38;10.74;82.28
71096;DHT22;58753;49.440;11.126;2024-03-02T09:57:04;10.84;81.89
71096;DHT22;58753;49.440;11.126;2024-03-02T09:59:29;10.98;81.67
71096;DHT22;58753;49.440;11.126;2024-03-02T10:01:59;11.09;81.30
71096;DHT22;58753;49.440;11.126;2024-03-02T10:04:29;11.19;80.70
71096;DHT22;58753;49.440;11.126;2024-03-02T10:07:16;11.28;79.83
71096;DHT22;58753;49.440;11.126;2024-03-02T10:09:43;11.33;79.45
71096;DHT22;58753;49.440;11.126;2024-03-02T10:12:10;11.36;78.46
71096;DHT22;58753;49.440;11.126;2024-03-02T10:14:37;11.42;78.21
71096;DHT22;58753;49.440;11.126;2024-03-02T10:17:05;11.49;77.82
71096;DHT22;58753;49.440;11.126;2024-03-02T10:19:33;11.57;77.19
71096;DHT22;58753;49.440;11.126;2024-03-02T10:22:03;11.69;77.07
71096;DHT22;58753;49.440;11.126;2024-03-02T10:24:41;11.71;76.17
71096;DHT22;58753;49.440;11.126;2024-03-02T10:27:10;11.80;75.77
71096;DHT22;58753;49.440;11.126;2024-03-02T10:29:40;11.89;75.48
71096;DHT22;58753;49.440;11.126;2024-03-02T10:32:08;11.91;74.74
71096;DHT22;58753;49.440;11.126;2024-03-02T10:34:35;11.97;74.33
71096;DHT22;58753;49.440;11.126;2024-03-02T10:37:00;12.04;74.27
71096;DHT22;58753;49.440;11.126;2024-03-02T10:39:26;12.08;73.38
71096;DHT22;58753;49.440;11.126;2024-03-02T10:41:53;12.14;73.17
71096;DHT22;58753;49.440;11.126;2024-03-02T10:44:19;12.24;72.68
71096;DHT22;58753;49.440;11.126;2024-03-02T10:46:45;12.27;71.86
71096;DHT22;58753;49.440;11.126;2024-03-02T10:49:12;12.28;71.29
71096;DHT22;58753;49.440;11.126;2024-03-02T10:51:38;12.27;70.41
71096;DHT22;58753;49.440;11.126;2024-03-02T10:54:04;12.25;70.80
71096;DHT22;58753;49.440;11.126;2024-03-02T10:56:31;12.25;70.06
71096;DHT22;58753;49.440;11.126;2024-03-02T11:01:55;12.30;69.32
71096;DHT22;58753;49.440;11.126;2024-03-02T11:04:21;12.30;69.13
71096;DHT22;58753;49.440;11.126;2024-03-02T11:06:49;12.34;69.04
71096;DHT22;58753;49.440;11.126;2024-03-02T11:09:17;12.40;69.10
71096;DHT22;58753;49.440;11.126;2024-03-02T11:11:43;12.51;68.72
71096;DHT22;58753;49.440;11.126;2024-03-02T11:14:14;12.56;68.67
71096;DHT22;58753;49.440;11.126;2024-03-02T11:16:42;12.69;68.50
71096;DHT22;58753;49.440;11.126;2024-03-02T11:19:12;12.85;68.02
71096;DHT22;58753;49.440;11.126;2024-03-02T11:21:38;12.92;67.57
71096;DHT22;58753;49.440;11.126;2024-03-02T11:26:49;13.40;65.17
71096;DHT22;58753;49.440;11.126;2024-03-02T11:32:21;14.14;63.75
71096;DHT22;58753;49.440;11.126;2024-03-02T11:34:49;14.21;62.35
71096;DHT22;58753;49.440;11.126;2024-03-02T11:37:16;14.07;62.71
71096;DHT22;58753;49.440;11.126;2024-03-02T11:39:44;13.92;62.72
71096;DHT22;58753;49.440;11.126;2024-03-02T11:42:11;14.09;63.96
71096;DHT22;58753;49.440;11.126;2024-03-02T11:44:38;14.29;62.69
71096;DHT22;58753;49.440;11.126;2024-03-02T11:47:08;14.41;62.85
71096;DHT22;58753;49.440;11.126;2024-03-02T11:49:44;14.45;61.99
71096;DHT22;58753;49.440;11.126;2024-03-02T11:52:12;14.35;60.88
71096;DHT22;58753;49.440;11.126;2024-03-02T11:54:39;14.05;60.08
71096;DHT22;58753;49.440;11.126;2024-03-02T11:57:08;13.74;60.85
71096;DHT22;58753;49.440;11.126;2024-03-02T11:59:34;13.48;60.98
71096;DHT22;58753;49.440;11.126;2024-03-02T12:02:00;13.40;61.66
71096;DHT22;58753;49.440;11.126;2024-03-02T12:04:26;13.40;61.86
71096;DHT22;58753;49.440;11.126;2024-03-02T12:06:59;13.54;61.90
71096;DHT22;58753;49.440;11.126;2024-03-02T12:09:28;13.64;60.94
71096;DHT22;58753;49.440;11.126;2024-03-02T12:12:07;13.77;60.42
71096;DHT22;58753;49.440;11.126;2024-03-02T12:14:34;13.91;61.05
71096;DHT22;58753;49.440;11.126;2024-03-02T12:17:00;14.17;60.89
71096;DHT22;58753;49.440;11.126;2024-03-02T12:19:26;14.33;60.16
71096;DHT22;58753;49.440;11.126;2024-03-02T12:21:53;14.39;59.74
71096;DHT22;58753;49.440;11.126;2024-03-02T12:24:18;14.52;59.50
71096;DHT22;58753;49.440;11.126;2024-03-02T12:26:44;14.92;59.59
71096;DHT22;58753;49.440;11.126;2024-03-02T12:29:10;15.11;58.12
71096;DHT22;58753;49.440;11.126;2024-03-02T12:31:36;15.33;58.69
71096;DHT22;58753;49.440;11.126;2024-03-02T12:34:03;15.74;58.17
71096;DHT22;58753;49.440;11.126;2024-03-02T12:36:29;15.88;56.17
71096;DHT22;58753;49.440;11.126;2024-03-02T12:38:54;15.98;55.94
71096;DHT22;58753;49.440;11.126;2024-03-02T12:41:20;15.99;56.37
71096;DHT22;58753;49.440;11.126;2024-03-02T12:43:46;15.99;54.86
71096;DHT22;58753;49.440;11.126;2024-03-02T12:46:11;16.05;55.02
71096;DHT22;58753;49.440;11.126;2024-03-02T12:48:37;16.29;55.12
71096;DHT22;58753;49.440;11.126;2024-03-02T12:51:06;16.26;54.06
71096;DHT22;58753;49.440;11.126;2024-03-02T12:53:31;16.30;53.90
71096;DHT22;58753;49.440;11.126;2024-03-02T12:55:57;16.32;53.03
71096;DHT22;58753;49.440;11.126;2024-03-02T12:58:22;16.12;52.75
71096;DHT22;58753;49.440;11.126;2024-03-02T13:00:48;16.04;53.63
71096;DHT22;58753;49.440;11.126;2024-03-02T13:03:14;15.69;53.00
71096;DHT22;58753;49.440;11.126;2024-03-02T13:05:40;15.54;53.73
71096;DHT22;58753;49.440;11.126;2024-03-02T13:08:06;15.31;53.41
71096;DHT22;58753;49.440;11.126;2024-03-02T13:10:32;15.13;54.60
71096;DHT22;58753;49.440;11.126;2024-03-02T13:12:59;15.16;55.09
71096;DHT22;58753;49.440;11.126;2024-03-02T13:15:26;15.26;55.24
71096;DHT22;58753;49.440;11.126;2024-03-02T13:17:52;15.31;54.64
71096;DHT22;58753;49.440;11.126;2024-03-02T13:20:18;15.55;54.50
71096;DHT22;58753;49.440;11.126;2024-03-02T13:22:44;15.99;54.23
71096;DHT22;58753;49.440;11.126;2024-03-02T13:25:09;16.06;53.49
71096;DHT22;58753;49.440;11.126;2024-03-02T13:27:36;16.38;54.66
71096;DHT22;58753;49.440;11.126;2024-03-02T13:30:05;16.39;52.32
71096;DHT22;58753;49.440;11.126;2024-03-02T13:32:31;16.61;53.01
71096;DHT22;58753;49.440;11.126;2024-03-02T13:34:56;16.59;52.78
71096;DHT22;58753;49.440;11.126;2024-03-02T13:37:22;16.48;52.93
71096;DHT22;58753;49.440;11.126;2024-03-02T13:39:48;16.45;53.04
71096;DHT22;58753;49.440;11.126;2024-03-02T13:42:13;16.39;52.83
71096;DHT22;58753;49.440;11.126;2024-03-02T13:44:40;16.45;52.84
71096;DHT22;58753;49.440;11.126;2024-03-02T13:47:06;16.39;52.69
71096;DHT22;58753;49.440;11.126;2024-03-02T13:49:32;16.33;52.70
71096;DHT22;58753;49.440;11.126;2024-03-02T13:52:08;16.13;52.11
71096;DHT22;58753;49.440;11.126;2024-03-02T13:54:45;16.12;52.65
71096;DHT22;58753;49.440;11.126;2024-03-02T13:57:11;16.15;52.81
71096;DHT22;58753;49.440;11.126;2024-03-02T13:59:38;16.13;52.87
71096;DHT22;58753;49.440;11.126;2024-03-02T14:02:04;16.05;52.72
71096;DHT22;58753;49.440;11.126;2024-03-02T14:04:31;15.88;53.12
71096;DHT22;58753;49.440;11.126;2024-03-02T14:06:57;15.82;53.39
71096;DHT22;58753;49.440;11.126;2024-03-02T14:09:22;15.71;53.64
71096;DHT22;58753;49.440;11.126;2024-03-02T14:11:50;15.65;53.96
71096;DHT22;58753;49.440;11.126;2024-03-02T14:14:16;15.75;53.67
71096;DHT22;58753;49.440;11.126;2024-03-02T14:16:42;15.77;52.93
71096;DHT22;58753;49.440;11.126;2024-03-02T14:19:07;15.78;53.13
71096;DHT22;58753;49.440;11.126;2024-03-02T14:21:34;15.82;53.78
71096;DHT22;58753;49.440;11.126;2024-03-02T14:24:01;15.92;53.73
71096;DHT22;58753;49.440;11.126;2024-03-02T14:26:26;15.91;53.01
71096;DHT22;58753;49.440;11.126;2024-03-02T14:28:53;15.82;52.15
71096;DHT22;58753;49.440;11.126;2024-03-02T14:31:19;15.82;53.62
71096;DHT22;58753;49.440;11.126;2024-03-02T14:33:45;15.84;53.44
71096;DHT22;58753;49.440;11.126;2024-03-02T14:36:11;15.72;52.81
71096;DHT22;58753;49.440;11.126;2024-03-02T14:38:37;15.53;53.39
71096;DHT22;58753;49.440;11.126;2024-03-02T14:41:03;15.62;54.34
71096;DHT22;58753;49.440;11.126;2024-03-02T14:43:29;15.72;54.18
71096;DHT22;58753;49.440;11.126;2024-03-02T14:45:54;15.89;54.05
71096;DHT22;58753;49.440;11.126;2024-03-02T14:48:20;15.88;53.76
71096;DHT22;58753;49.440;11.126;2024-03-02T14:50:46;15.79;54.22
71096;DHT22;58753;49.440;11.126;2024-03-02T14:53:12;15.84;53.99
71096;DHT22;58753;49.440;11.126;2024-03-02T14:55:37;15.75;53.96
71096;DHT22;58753;49.440;11.126;2024-03-02T14:58:03;15.57;53.08
71096;DHT22;58753;49.440;11.126;2024-03-02T15:00:28;15.33;53.75
71096;DHT22;58753;49.440;11.126;2024-03-02T15:02:53;15.07;54.79
71096;DHT22;58753;49.440;11.126;2024-03-02T15:05:19;15.03;55.69
71096;DHT22;58753;49.440;11.126;2024-03-02T15:07:45;15.00;55.42
71096;DHT22;58753;49.440;11.126;2024-03-02T15:10:10;14.94;55.49
71096;DHT22;58753;49.440;11.126;2024-03-02T15:12:36;15.08;56.34
71096;DHT22;58753;49.440;11.126;2024-03-02T15:15:02;15.50;56.02
71096;DHT22;58753;49.440;11.126;2024-03-02T15:17:29;15.61;55.74
71096;DHT22;58753;49.440;11.126;2024-03-02T15:19:54;15.28;55.06
71096;DHT22;58753;49.440;11.126;2024-03-02T15:22:20;15.00;55.80
71096;DHT22;58753;49.440;11.126;2024-03-02T15:24:45;14.82;56.15
71096;DHT22;58753;49.440;11.126;2024-03-02T15:27:11;14.53;56.86
71096;DHT22;58753;49.440;11.126;2024-03-02T15:29:36;14.29;57.63
71096;DHT22;58753;49.440;11.126;2024-03-02T15:32:02;14.05;57.69
71096;DHT22;58753;49.440;11.126;2024-03-02T15:34:31;13.82;58.48
71096;DHT22;58753;49.440;11.126;2024-03-02T15:36:57;13.58;58.96